createdAt,value
2023-01-09T00:01:50.110Z,2.42
2023-01-09T00:04:16.663Z,2.13
2023-01-09T00:06:53.654Z,2.40
2023-01-09T00:09:21.340Z,2.08
2023-01-09T00:11:48.213Z,2.90
2023-01-09T00:14:15.281Z,2.83
2023-01-09T00:16:41.728Z,2.83
2023-01-09T00:19:08.111Z,2.80
2023-01-09T00:21:34.546Z,3.17
2023-01-09T00:24:00.829Z,4.32
2023-01-09T00:26:27.226Z,4.25
2023-01-09T00:28:54.174Z,4.38
2023-01-09T00:31:20.726Z,4.07
2023-01-09T00:33:59.614Z,4.17
2023-01-09T00:36:25.959Z,3.88
2023-01-09T00:38:52.471Z,4.30
2023-01-09T00:41:20.597Z,3.78
2023-01-09T00:43:55.389Z,3.67
2023-01-09T00:46:24.624Z,3.17
2023-01-09T00:48:51.190Z,3.67
2023-01-09T00:51:19.647Z,3.08
2023-01-09T00:53:46.855Z,2.35
2023-01-09T00:56:14.843Z,2.63
2023-01-09T00:58:41.298Z,2.20
2023-01-09T01:01:07.660Z,2.40
2023-01-09T01:03:34.089Z,2.22
2023-01-09T01:06:19.201Z,2.15
2023-01-09T01:08:46.091Z,2.20
2023-01-09T01:11:13.053Z,1.70
2023-01-09T01:13:39.847Z,2.58
2023-01-09T01:16:07.245Z,2.25
2023-01-09T01:18:33.762Z,2.70
2023-01-09T01:21:00.099Z,2.78
2023-01-09T01:23:26.402Z,3.33
2023-01-09T01:25:52.686Z,2.40
2023-01-09T01:28:19.485Z,2.00
2023-01-09T01:30:45.835Z,2.30
2023-01-09T01:33:12.739Z,2.28
2023-01-09T01:35:39.030Z,2.60
2023-01-09T01:38:05.504Z,2.33
2023-01-09T01:40:32.106Z,2.60
2023-01-09T01:42:58.747Z,2.43
2023-01-09T01:45:29.012Z,2.00
2023-01-09T01:48:00.033Z,2.10
2023-01-09T01:50:29.093Z,1.92
2023-01-09T01:53:09.048Z,2.00
2023-01-09T01:55:36.696Z,2.03
2023-01-09T01:58:04.627Z,1.77
2023-01-09T02:00:32.687Z,1.90
2023-01-09T02:03:00.761Z,2.13
2023-01-09T02:05:27.195Z,1.58
2023-01-09T02:07:53.552Z,1.48
2023-01-09T02:10:23.416Z,1.40
2023-01-09T02:12:50.436Z,1.50
2023-01-09T02:15:17.828Z,1.58
2023-01-09T02:17:49.986Z,1.60
2023-01-09T02:20:19.453Z,2.33
2023-01-09T02:22:48.703Z,1.30
2023-01-09T02:25:33.835Z,1.95
2023-01-09T02:28:15.730Z,1.40
2023-01-09T02:30:42.136Z,1.50
2023-01-09T02:33:11.578Z,1.67
2023-01-09T02:35:52.304Z,1.60
2023-01-09T02:38:24.759Z,1.88
2023-01-09T02:41:01.976Z,1.90
2023-01-09T02:43:30.314Z,1.83
2023-01-09T02:45:56.690Z,1.80
2023-01-09T02:48:23.069Z,1.77
2023-01-09T02:51:09.446Z,2.00
2023-01-09T02:53:51.278Z,1.90
2023-01-09T02:56:17.662Z,2.13
2023-01-09T02:58:50.371Z,1.70
2023-01-09T03:01:22.587Z,2.03
2023-01-09T03:03:52.312Z,1.98
2023-01-09T03:06:18.588Z,2.00
2023-01-09T03:08:47.558Z,1.90
2023-01-09T03:11:13.949Z,2.15
2023-01-09T03:13:46.180Z,2.38
2023-01-09T03:16:14.697Z,2.55
2023-01-09T03:18:41.943Z,2.05
2023-01-09T03:21:09.072Z,1.98
2023-01-09T03:23:47.407Z,2.03
2023-01-09T03:26:13.946Z,2.50
2023-01-09T03:28:40.398Z,2.70
2023-01-09T03:31:06.752Z,2.22
2023-01-09T03:33:33.235Z,2.80
2023-01-09T03:35:59.570Z,2.67
2023-01-09T03:38:25.937Z,2.00
2023-01-09T03:40:52.290Z,2.17
2023-01-09T03:43:18.682Z,2.03
2023-01-09T03:45:45.054Z,2.17
2023-01-09T03:48:11.400Z,2.13
2023-01-09T03:50:37.754Z,2.10
2023-01-09T03:53:04.506Z,1.83
2023-01-09T03:55:30.834Z,1.92
2023-01-09T03:57:57.441Z,2.37
2023-01-09T04:00:23.733Z,2.10
2023-01-09T04:02:50.228Z,2.25
2023-01-09T04:05:16.724Z,2.22
2023-01-09T04:07:43.084Z,2.33
2023-01-09T04:10:09.770Z,2.35
2023-01-09T04:12:36.082Z,1.90
2023-01-09T04:15:02.413Z,2.25
2023-01-09T04:17:28.913Z,2.40
2023-01-09T04:19:55.275Z,1.90
2023-01-09T04:22:22.613Z,2.42
2023-01-09T04:24:48.919Z,2.45
2023-01-09T04:27:15.299Z,3.22
2023-01-09T04:29:41.909Z,2.07
2023-01-09T04:32:08.372Z,2.13
2023-01-09T04:34:34.692Z,2.65
2023-01-09T04:37:01.080Z,2.45
2023-01-09T04:39:27.378Z,2.28
2023-01-09T04:41:53.830Z,2.22
2023-01-09T04:44:21.730Z,2.85
2023-01-09T04:46:49.331Z,3.10
2023-01-09T04:51:41.953Z,2.67
2023-01-09T04:54:08.321Z,3.05
2023-01-09T04:56:35.078Z,3.33
2023-01-09T04:59:01.674Z,2.97
2023-01-09T05:01:28.423Z,3.05
2023-01-09T05:03:54.920Z,3.33
2023-01-09T05:06:21.268Z,2.95
2023-01-09T05:08:47.613Z,3.33
2023-01-09T05:11:13.942Z,3.63
2023-01-09T05:13:40.287Z,3.22
2023-01-09T05:16:06.780Z,2.83
2023-01-09T05:18:33.128Z,2.90
2023-01-09T05:20:59.433Z,2.60
2023-01-09T05:23:25.840Z,3.22
2023-01-09T05:25:52.179Z,2.92
2023-01-09T05:28:18.649Z,2.67
2023-01-09T05:30:44.964Z,2.85
2023-01-09T05:33:11.298Z,3.03
2023-01-09T05:35:37.605Z,3.47
2023-01-09T05:38:04.045Z,3.53
2023-01-09T05:40:38.575Z,3.00
2023-01-09T05:43:06.278Z,3.13
2023-01-09T05:45:32.622Z,2.80
2023-01-09T05:47:58.931Z,3.20
2023-01-09T05:50:25.523Z,2.35
2023-01-09T05:52:52.859Z,2.80
2023-01-09T05:55:19.202Z,2.95
2023-01-09T05:57:45.522Z,2.78
2023-01-09T06:00:12.374Z,2.70
2023-01-09T06:02:38.768Z,2.60
2023-01-09T06:05:05.307Z,3.10
2023-01-09T06:07:31.617Z,2.92
2023-01-09T06:09:57.942Z,2.17
2023-01-09T06:12:24.327Z,2.42
2023-01-09T06:14:51.672Z,2.28
2023-01-09T06:17:18.091Z,2.95
2023-01-09T06:19:44.756Z,2.30
2023-01-09T06:22:11.152Z,2.73
2023-01-09T06:24:37.594Z,2.45
2023-01-09T06:27:04.073Z,2.30
2023-01-09T06:29:30.527Z,2.35
2023-01-09T06:31:56.948Z,2.13
2023-01-09T06:34:23.383Z,2.42
2023-01-09T06:36:49.750Z,2.33
2023-01-09T06:39:16.059Z,2.35
2023-01-09T06:41:42.435Z,2.53
2023-01-09T06:44:08.767Z,2.15
2023-01-09T06:46:35.080Z,2.15
2023-01-09T06:49:01.444Z,2.10
2023-01-09T06:51:27.752Z,2.28
2023-01-09T06:53:54.136Z,2.13
2023-01-09T06:56:20.491Z,2.47
2023-01-09T06:58:46.850Z,2.50
2023-01-09T07:01:13.227Z,2.28
2023-01-09T07:03:39.737Z,2.00
2023-01-09T07:06:06.169Z,1.73
2023-01-09T07:08:32.674Z,1.98
2023-01-09T07:10:58.971Z,1.92
2023-01-09T07:13:25.283Z,2.08
2023-01-09T07:15:53.640Z,2.17
2023-01-09T07:18:20.364Z,1.90
2023-01-09T07:20:46.691Z,2.53
2023-01-09T07:23:13.173Z,2.13
2023-01-09T07:25:40.058Z,2.38
2023-01-09T07:28:06.384Z,2.28
2023-01-09T07:30:33.431Z,2.67
2023-01-09T07:33:00.395Z,1.80
2023-01-09T07:35:27.878Z,2.30
2023-01-09T07:37:54.258Z,2.53
2023-01-09T07:40:20.817Z,2.40
2023-01-09T07:42:47.205Z,2.05
2023-01-09T07:45:13.607Z,2.00
2023-01-09T07:47:41.715Z,2.20
2023-01-09T07:50:08.793Z,2.25
2023-01-09T07:52:35.286Z,2.42
2023-01-09T07:55:01.952Z,2.13
2023-01-09T07:57:29.881Z,2.13
2023-01-09T07:59:56.377Z,2.25
2023-01-09T08:02:22.833Z,2.17
2023-01-09T08:04:49.208Z,3.85
2023-01-09T08:07:15.578Z,2.10
2023-01-09T08:09:41.902Z,2.20
2023-01-09T08:12:08.283Z,1.88
2023-01-09T08:14:35.932Z,2.08
2023-01-09T08:17:04.300Z,2.20
2023-01-09T08:19:30.741Z,2.55
2023-01-09T08:21:57.125Z,2.70
2023-01-09T08:24:23.489Z,2.22
2023-01-09T08:26:50.891Z,2.10
2023-01-09T08:29:18.325Z,2.03
2023-01-09T08:31:44.830Z,2.53
2023-01-09T08:34:11.247Z,2.30
2023-01-09T08:36:37.860Z,2.72
2023-01-09T08:39:04.228Z,2.73
2023-01-09T08:41:49.106Z,2.47
2023-01-09T08:44:37.256Z,2.55
2023-01-09T08:47:07.773Z,2.53
2023-01-09T08:49:35.087Z,2.65
2023-01-09T08:52:01.704Z,2.83
2023-01-09T08:54:31.218Z,2.60
2023-01-09T08:56:58.997Z,2.78
2023-01-09T09:01:52.650Z,2.78
2023-01-09T09:04:19.152Z,3.17
2023-01-09T09:06:45.906Z,2.80
2023-01-09T09:09:12.588Z,4.05
2023-01-09T09:11:39.934Z,2.50
2023-01-09T09:14:26.261Z,3.28
2023-01-09T09:16:53.171Z,3.22
2023-01-09T09:19:20.030Z,2.15
2023-01-09T09:21:46.468Z,2.60
2023-01-09T09:24:12.812Z,2.00
2023-01-09T09:26:39.267Z,2.22
2023-01-09T09:29:05.763Z,2.75
2023-01-09T09:31:32.190Z,2.70
2023-01-09T09:33:58.826Z,2.80
2023-01-09T09:36:25.159Z,3.50
2023-01-09T09:38:53.853Z,3.15
2023-01-09T09:41:41.790Z,3.00
2023-01-09T09:44:39.591Z,2.57
2023-01-09T09:47:23.639Z,3.13
2023-01-09T09:50:09.804Z,3.47
2023-01-09T09:52:45.695Z,3.47
2023-01-09T09:55:16.384Z,3.30
2023-01-09T09:57:47.925Z,3.72
2023-01-09T10:00:19.464Z,3.67
2023-01-09T10:02:50.509Z,3.78
2023-01-09T10:05:49.714Z,3.70
2023-01-09T10:08:23.580Z,3.50
2023-01-09T10:10:54.292Z,3.05
2023-01-09T10:13:46.635Z,3.05
2023-01-09T10:16:31.831Z,3.30
2023-01-09T10:19:19.432Z,3.05
2023-01-09T10:21:45.862Z,4.20
2023-01-09T10:24:31.091Z,3.53
2023-01-09T10:26:58.197Z,3.47
2023-01-09T10:29:33.620Z,3.08
2023-01-09T10:32:18.771Z,2.92
2023-01-09T10:35:11.601Z,2.65
2023-01-09T10:37:40.268Z,2.95
2023-01-09T10:40:15.662Z,3.63
2023-01-09T10:42:54.269Z,3.40
2023-01-09T10:45:29.778Z,3.58
2023-01-09T10:48:21.861Z,3.55
2023-01-09T10:50:49.399Z,3.03
2023-01-09T10:55:44.863Z,2.10
2023-01-09T10:58:12.527Z,3.20
2023-01-09T11:00:41.369Z,3.30
2023-01-09T11:03:12.160Z,2.55
2023-01-09T11:05:38.552Z,2.95
2023-01-09T11:08:27.217Z,3.90
2023-01-09T11:10:55.119Z,3.90
2023-01-09T11:13:21.879Z,4.10
2023-01-09T11:16:00.541Z,4.07
2023-01-09T11:18:34.404Z,4.30
2023-01-09T11:21:19.605Z,4.40
2023-01-09T11:23:45.929Z,4.60
2023-01-09T11:26:22.040Z,4.85
2023-01-09T11:29:04.266Z,5.38
2023-01-09T11:31:31.065Z,2.78
2023-01-09T11:33:58.601Z,2.92
2023-01-09T11:36:28.290Z,1.98
2023-01-09T11:38:58.659Z,1.50
2023-01-09T11:41:26.810Z,1.55
2023-01-09T11:43:55.710Z,1.80
2023-01-09T11:46:31.040Z,1.30
2023-01-09T11:48:58.700Z,1.33
2023-01-09T11:51:29.081Z,1.08
2023-01-09T11:54:02.279Z,1.30
2023-01-09T11:56:30.900Z,1.30
2023-01-09T11:58:59.283Z,1.30
2023-01-09T12:01:43.953Z,1.58
2023-01-09T12:04:30.095Z,1.27
2023-01-09T12:07:27.961Z,1.60
2023-01-09T12:10:12.055Z,1.63
2023-01-09T12:12:50.767Z,1.98
2023-01-09T12:15:20.193Z,2.85
2023-01-09T12:17:58.995Z,2.45
2023-01-09T12:20:38.710Z,2.70
2023-01-09T12:23:17.531Z,3.08
2023-01-09T12:25:44.212Z,3.08
2023-01-09T12:28:16.377Z,3.28
2023-01-09T12:30:56.594Z,3.70
2023-01-09T12:33:36.867Z,3.53
2023-01-09T12:36:05.987Z,3.30
2023-01-09T12:38:40.124Z,3.60
2023-01-09T12:41:18.072Z,4.45
2023-01-09T12:43:47.529Z,2.83
2023-01-09T12:46:26.451Z,2.67
2023-01-09T12:49:11.673Z,1.98
2023-01-09T12:51:55.717Z,1.90
2023-01-09T12:54:26.390Z,1.73
2023-01-09T12:57:00.420Z,2.08
2023-01-09T12:59:33.842Z,1.88
2023-01-09T13:02:12.952Z,2.75
2023-01-09T13:04:42.111Z,2.22
2023-01-09T13:07:15.911Z,2.03
2023-01-09T13:09:54.683Z,2.33
2023-01-09T13:12:23.065Z,2.00
2023-01-09T13:14:52.487Z,1.95
2023-01-09T13:17:22.130Z,1.77
2023-01-09T13:19:48.480Z,1.70
2023-01-09T13:22:18.306Z,2.13
2023-01-09T13:25:03.149Z,3.10
2023-01-09T13:27:32.964Z,2.10
2023-01-09T13:30:15.458Z,2.10
2023-01-09T13:33:00.721Z,3.47
2023-01-09T13:35:27.244Z,1.90
2023-01-09T13:37:53.718Z,2.50
2023-01-09T13:40:19.971Z,2.95
2023-01-09T13:42:58.597Z,2.17
2023-01-09T13:45:26.270Z,3.13
2023-01-09T13:48:17.593Z,2.92
2023-01-09T13:50:45.341Z,2.65
2023-01-09T13:53:17.731Z,2.70
2023-01-09T13:55:59.783Z,2.53
2023-01-09T13:58:31.969Z,2.88
2023-01-09T14:00:58.793Z,2.38
2023-01-09T14:03:31.359Z,2.80
2023-01-09T14:05:57.676Z,3.15
2023-01-09T14:08:28.989Z,2.90
2023-01-09T14:10:57.849Z,2.47
2023-01-09T14:13:26.313Z,2.55
2023-01-09T14:16:03.187Z,2.30
2023-01-09T14:18:31.352Z,2.38
2023-01-09T14:23:53.421Z,2.15
2023-01-09T14:26:24.459Z,2.60
2023-01-09T14:28:50.877Z,1.90
2023-01-09T14:31:33.091Z,2.17
2023-01-09T14:34:31.003Z,2.05
2023-01-09T14:36:59.543Z,2.22
2023-01-09T14:39:27.094Z,2.28
2023-01-09T14:44:45.605Z,2.20
2023-01-09T14:47:20.986Z,2.50
2023-01-09T14:49:51.874Z,2.60
2023-01-09T14:52:23.345Z,3.10
2023-01-09T14:54:50.605Z,2.88
2023-01-09T14:57:27.511Z,3.13
2023-01-09T15:00:01.475Z,2.58
2023-01-09T15:02:30.026Z,3.83
2023-01-09T15:04:59.550Z,3.08
2023-01-09T15:07:31.053Z,2.80
2023-01-09T15:10:00.495Z,2.90
2023-01-09T15:12:27.234Z,2.60
2023-01-09T15:14:55.831Z,2.80
2023-01-09T15:17:34.247Z,2.47
2023-01-09T15:20:01.804Z,3.05
2023-01-09T15:24:55.452Z,2.90
2023-01-09T15:27:23.356Z,2.97
2023-01-09T15:30:14.539Z,2.70
2023-01-09T15:32:43.288Z,2.63
2023-01-09T15:35:13.340Z,3.67
2023-01-09T15:37:40.393Z,3.40
2023-01-09T15:40:08.041Z,3.40
2023-01-09T15:42:57.105Z,4.15
2023-01-09T15:45:27.485Z,3.28
2023-01-09T15:47:54.711Z,3.85
2023-01-09T15:50:27.644Z,5.82
2023-01-09T15:52:54.648Z,3.70
2023-01-09T15:55:26.333Z,4.13
2023-01-09T15:57:53.528Z,4.30
2023-01-09T16:00:28.773Z,4.07
2023-01-09T16:03:10.888Z,4.30
2023-01-09T16:05:41.192Z,3.47
2023-01-09T16:08:22.084Z,3.95
2023-01-09T16:11:10.982Z,3.05
2023-01-09T16:13:39.458Z,2.95
2023-01-09T16:16:06.379Z,3.28
2023-01-09T16:18:35.438Z,2.95
2023-01-09T16:21:23.971Z,3.17
2023-01-09T16:24:00.737Z,3.65
2023-01-09T16:26:40.411Z,3.35
2023-01-09T16:29:25.384Z,3.50
2023-01-09T16:31:58.016Z,3.10
2023-01-09T16:34:24.590Z,3.17
2023-01-09T16:36:50.969Z,2.85
2023-01-09T16:39:17.409Z,3.33
2023-01-09T16:42:03.007Z,3.10
2023-01-09T16:44:29.381Z,3.25
2023-01-09T16:46:56.021Z,3.38
2023-01-09T16:49:23.596Z,3.70
2023-01-09T16:54:16.465Z,4.07
2023-01-09T16:56:43.802Z,4.18
2023-01-09T16:59:14.258Z,3.97
2023-01-09T17:01:41.586Z,3.63
2023-01-09T17:04:12.124Z,4.57
2023-01-09T17:06:39.077Z,4.68
2023-01-09T17:09:05.525Z,5.10
2023-01-09T17:11:32.242Z,4.45
2023-01-09T17:13:59.345Z,4.85
2023-01-09T17:16:25.852Z,4.90
2023-01-09T17:18:52.220Z,5.10
2023-01-09T17:21:23.083Z,5.13
2023-01-09T17:24:09.651Z,5.72
2023-01-09T17:26:55.624Z,5.35
2023-01-09T17:29:21.999Z,4.80
2023-01-09T17:31:48.292Z,5.65
2023-01-09T17:34:14.608Z,5.88
2023-01-09T17:36:41.036Z,5.47
2023-01-09T17:39:07.534Z,6.10
2023-01-09T17:41:33.937Z,7.20
2023-01-09T17:44:00.368Z,8.30
2023-01-09T17:46:31.028Z,9.07
2023-01-09T17:48:58.879Z,11.50
2023-01-09T17:51:25.970Z,9.88
2023-01-09T17:53:52.449Z,8.32
2023-01-09T17:56:19.991Z,8.13
2023-01-09T18:01:16.521Z,6.95
2023-01-09T18:03:43.352Z,7.43
2023-01-09T18:06:10.424Z,7.38
2023-01-09T18:08:36.844Z,8.40
2023-01-09T18:11:08.074Z,8.18
2023-01-09T18:13:34.426Z,9.77
2023-01-09T18:16:01.092Z,8.57
2023-01-09T18:18:30.562Z,8.23
2023-01-09T18:20:57.059Z,8.50
2023-01-09T18:23:23.900Z,8.07
2023-01-09T18:25:50.271Z,7.70
2023-01-09T18:28:16.864Z,8.27
2023-01-09T18:30:45.008Z,9.15
2023-01-09T18:33:12.212Z,7.30
2023-01-09T18:35:38.846Z,6.93
2023-01-09T18:38:05.186Z,8.35
2023-01-09T18:40:33.117Z,7.53
2023-01-09T18:42:59.757Z,8.05
2023-01-09T18:45:26.333Z,8.03
2023-01-09T18:47:52.677Z,7.55
2023-01-09T18:50:19.249Z,8.80
2023-01-09T18:52:45.649Z,7.80
2023-01-09T18:55:11.979Z,7.55
2023-01-09T18:57:38.347Z,8.27
2023-01-09T19:00:05.004Z,8.50
2023-01-09T19:02:31.232Z,8.50
2023-01-09T19:04:57.501Z,7.15
2023-01-09T19:07:24.005Z,8.48
2023-01-09T19:09:50.552Z,8.18
2023-01-09T19:12:16.807Z,8.18
2023-01-09T19:14:43.063Z,6.93
2023-01-09T19:17:09.339Z,6.68
2023-01-09T19:19:35.761Z,6.90
2023-01-09T19:22:02.132Z,7.55
2023-01-09T19:24:28.540Z,7.28
2023-01-09T19:26:54.910Z,8.13
2023-01-09T19:29:21.263Z,7.90
2023-01-09T19:31:48.682Z,8.45
2023-01-09T19:34:16.026Z,7.75
2023-01-09T19:36:47.269Z,7.82
2023-01-09T19:39:14.092Z,8.23
2023-01-09T19:41:40.481Z,8.18
2023-01-09T19:44:06.744Z,8.48
2023-01-09T19:46:33.672Z,9.25
2023-01-09T19:49:04.437Z,9.73
2023-01-09T19:51:31.327Z,9.48
2023-01-09T19:56:27.222Z,9.00
2023-01-09T19:58:54.568Z,11.32
2023-01-09T20:01:25.177Z,9.93
2023-01-09T20:03:51.893Z,8.70
2023-01-09T20:06:22.337Z,9.70
2023-01-09T20:08:49.273Z,6.88
2023-01-09T20:11:15.839Z,7.90
2023-01-09T20:13:42.650Z,7.30
2023-01-09T20:16:13.902Z,8.77
2023-01-09T20:18:40.856Z,9.63
2023-01-09T20:21:07.229Z,8.43
2023-01-09T20:23:34.153Z,8.70
2023-01-09T20:26:01.148Z,8.57
2023-01-09T20:28:27.581Z,7.32
2023-01-09T20:30:54.059Z,16.15
2023-01-09T20:33:20.899Z,9.82
2023-01-09T20:35:47.312Z,8.13
2023-01-09T20:38:13.727Z,5.72
2023-01-09T20:40:43.803Z,5.90
2023-01-09T20:43:12.309Z,4.65
2023-01-09T20:45:39.451Z,6.25
2023-01-09T20:48:05.954Z,5.22
2023-01-09T20:50:33.092Z,5.93
2023-01-09T20:52:59.398Z,5.47
2023-01-09T20:55:25.724Z,9.27
2023-01-09T20:57:52.080Z,10.73
2023-01-09T21:00:18.426Z,5.10
2023-01-09T21:02:44.829Z,5.03
2023-01-09T21:05:11.153Z,4.70
2023-01-09T21:07:37.627Z,4.28
2023-01-09T21:10:04.377Z,3.47
2023-01-09T21:12:37.674Z,3.33
2023-01-09T21:15:05.351Z,3.30
2023-01-09T21:17:32.883Z,3.22
2023-01-09T21:22:25.477Z,4.05
2023-01-09T21:24:51.812Z,3.15
2023-01-09T21:27:18.871Z,3.97
2023-01-09T21:29:45.679Z,4.25
2023-01-09T21:32:12.094Z,3.92
2023-01-09T21:34:38.492Z,4.72
2023-01-09T21:37:04.780Z,5.13
2023-01-09T21:39:31.262Z,5.65
2023-01-09T21:42:20.907Z,6.93
2023-01-09T21:45:05.730Z,6.13
2023-01-09T21:47:33.059Z,5.38
2023-01-09T21:49:59.396Z,5.88
2023-01-09T21:52:25.663Z,5.95
2023-01-09T21:54:52.192Z,5.90
2023-01-09T21:57:18.709Z,6.60
2023-01-09T21:59:45.015Z,6.00
2023-01-09T22:02:11.806Z,5.55
2023-01-09T22:04:38.492Z,5.70
2023-01-09T22:07:04.937Z,5.00
2023-01-09T22:09:31.317Z,5.82
2023-01-09T22:11:57.827Z,5.28
2023-01-09T22:14:24.148Z,4.53
2023-01-09T22:16:50.603Z,4.95
2023-01-09T22:19:19.670Z,6.00
2023-01-09T22:21:46.331Z,5.10
2023-01-09T22:24:13.510Z,5.00
2023-01-09T22:26:39.796Z,4.95
2023-01-09T22:29:06.102Z,3.97
2023-01-09T22:31:39.570Z,4.88
2023-01-09T22:34:06.143Z,4.85
2023-01-09T22:36:32.634Z,5.45
2023-01-09T22:38:59.747Z,5.07
2023-01-09T22:41:27.459Z,5.60
2023-01-09T22:43:53.768Z,4.57
2023-01-09T22:46:20.252Z,4.80
2023-01-09T22:48:46.761Z,5.30
2023-01-09T22:51:14.625Z,4.68
2023-01-09T22:53:41.082Z,4.40
2023-01-09T22:56:10.664Z,4.97
2023-01-09T22:58:36.945Z,5.45
2023-01-09T23:01:03.912Z,4.97
2023-01-09T23:03:30.247Z,4.40
2023-01-09T23:06:10.658Z,5.40
2023-01-09T23:08:37.035Z,4.97
2023-01-09T23:11:04.672Z,4.32
2023-01-09T23:15:57.156Z,4.47
2023-01-09T23:18:23.830Z,5.95
2023-01-09T23:20:54.023Z,5.17
2023-01-09T23:23:21.041Z,4.38
2023-01-09T23:25:48.415Z,4.35
2023-01-09T23:28:14.669Z,4.55
2023-01-09T23:30:41.008Z,5.25
2023-01-09T23:33:07.277Z,4.25
2023-01-09T23:35:33.585Z,4.95
2023-01-09T23:37:59.865Z,5.97
2023-01-09T23:40:26.257Z,4.82
2023-01-09T23:43:10.807Z,4.78
2023-01-09T23:45:38.470Z,4.40
2023-01-09T23:48:05.816Z,4.50
2023-01-09T23:50:32.273Z,5.30
2023-01-09T23:52:58.600Z,4.90
2023-01-09T23:55:25.199Z,4.38
2023-01-09T23:57:54.403Z,4.20
